createdAt,value
2023-04-06T00:01:47.752Z,100617.78
2023-04-06T00:04:18.252Z,100612.66
2023-04-06T00:06:49.520Z,100612.84
2023-04-06T00:09:21.536Z,100604.38
2023-04-06T00:11:53.003Z,100593.16
2023-04-06T00:14:24.317Z,100589.91
2023-04-06T00:16:55.751Z,100576.22
2023-04-06T00:19:27.299Z,100581.91
2023-04-06T00:21:58.818Z,100577.72
2023-04-06T00:24:29.737Z,100581.56
2023-04-06T00:27:00.971Z,100584.06
2023-04-06T00:29:32.623Z,100586.34
2023-04-06T00:32:04.738Z,100586.75
2023-04-06T00:34:36.065Z,100573.78
2023-04-06T00:37:07.200Z,100588.84
2023-04-06T00:39:40.317Z,100588.34
2023-04-06T00:42:16.234Z,100594.28
2023-04-06T00:44:47.805Z,100580.22
2023-04-06T00:47:19.496Z,100572.97
2023-04-06T00:49:51.256Z,100582.38
2023-04-06T00:52:22.217Z,100577.50
2023-04-06T00:54:54.215Z,100571.00
2023-04-06T00:57:27.002Z,100562.31
2023-04-06T01:00:00.369Z,100568.78
2023-04-06T01:02:32.477Z,100562.91
2023-04-06T01:05:04.387Z,100566.13
2023-04-06T01:07:44.845Z,100544.09
2023-04-06T01:10:28.754Z,100536.72
2023-04-06T01:13:10.928Z,100533.44
2023-04-06T01:16:05.112Z,100541.69
2023-04-06T01:19:00.122Z,100530.44
2023-04-06T01:21:34.760Z,100534.56
2023-04-06T01:24:25.823Z,100526.78
2023-04-06T01:27:17.227Z,100535.38
2023-04-06T01:30:00.514Z,100526.47
2023-04-06T01:32:54.842Z,100519.28
2023-04-06T01:35:40.242Z,100519.91
2023-04-06T01:38:20.572Z,100507.25
2023-04-06T01:40:52.957Z,100517.63
2023-04-06T01:43:26.565Z,100506.84
2023-04-06T01:46:10.430Z,100500.25
2023-04-06T01:48:45.792Z,100496.31
2023-04-06T01:51:34.894Z,100482.56
2023-04-06T01:54:08.783Z,100486.09
2023-04-06T01:57:02.810Z,100476.00
2023-04-06T01:59:44.181Z,100468.31
2023-04-06T02:02:26.761Z,100470.97
2023-04-06T02:05:03.830Z,100455.81
2023-04-06T02:07:35.200Z,100464.84
2023-04-06T02:10:14.448Z,100454.22
2023-04-06T02:12:47.696Z,100463.56
2023-04-06T02:15:25.213Z,100457.44
2023-04-06T02:17:56.871Z,100455.13
2023-04-06T02:20:28.854Z,100449.69
2023-04-06T02:23:03.009Z,100449.22
2023-04-06T02:25:34.891Z,100444.78
2023-04-06T02:28:06.094Z,100445.63
2023-04-06T02:30:37.673Z,100449.50
2023-04-06T02:33:09.363Z,100444.16
2023-04-06T02:35:48.524Z,100436.78
2023-04-06T02:38:19.746Z,100434.34
2023-04-06T02:40:51.114Z,100428.84
2023-04-06T02:43:25.565Z,100427.34
2023-04-06T02:46:05.843Z,100422.28
2023-04-06T02:48:41.627Z,100420.94
2023-04-06T02:51:12.832Z,100422.50
2023-04-06T02:53:46.710Z,100418.22
2023-04-06T02:56:18.603Z,100412.66
2023-04-06T02:58:54.535Z,100402.81
2023-04-06T03:01:30.412Z,100405.44
2023-04-06T03:04:06.273Z,100391.75
2023-04-06T03:06:37.438Z,100396.91
2023-04-06T03:09:17.973Z,100388.06
2023-04-06T03:11:50.184Z,100390.59
2023-04-06T03:14:24.054Z,100382.50
2023-04-06T03:16:55.380Z,100364.38
2023-04-06T03:19:28.395Z,100378.88
2023-04-06T03:22:03.844Z,100366.31
2023-04-06T03:24:35.304Z,100374.63
2023-04-06T03:27:07.213Z,100368.22
2023-04-06T03:29:39.476Z,100368.16
2023-04-06T03:32:12.908Z,100371.81
2023-04-06T03:34:45.772Z,100369.78
2023-04-06T03:37:17.098Z,100367.00
2023-04-06T03:39:53.156Z,100355.25
2023-04-06T03:42:27.507Z,100354.47
2023-04-06T03:45:05.262Z,100350.06
2023-04-06T03:47:36.737Z,100355.50
2023-04-06T03:50:11.649Z,100349.25
2023-04-06T03:52:43.464Z,100349.25
2023-04-06T03:55:14.751Z,100349.25
2023-04-06T03:57:46.315Z,100341.72
2023-04-06T04:00:17.911Z,100341.84
2023-04-06T04:02:48.890Z,100346.00
2023-04-06T04:05:20.230Z,100341.72
2023-04-06T04:07:51.450Z,100338.50
2023-04-06T04:10:24.908Z,100332.22
2023-04-06T04:12:56.421Z,100335.47
2023-04-06T04:15:28.439Z,100332.22
2023-04-06T04:18:03.547Z,100332.19
2023-04-06T04:20:34.870Z,100333.94
2023-04-06T04:23:06.223Z,100331.59
2023-04-06T04:25:38.502Z,100323.16
2023-04-06T04:28:10.968Z,100323.16
2023-04-06T04:30:44.363Z,100315.00
2023-04-06T04:33:16.754Z,100304.78
2023-04-06T04:35:49.356Z,100309.63
2023-04-06T04:38:23.531Z,100306.28
2023-04-06T04:40:57.407Z,100298.38
2023-04-06T04:43:29.795Z,100288.94
2023-04-06T04:46:03.103Z,100288.72
2023-04-06T04:48:42.060Z,100297.06
2023-04-06T04:51:13.207Z,100295.19
2023-04-06T04:54:16.372Z,100285.94
2023-04-06T04:56:48.298Z,100289.63
2023-04-06T04:59:27.384Z,100281.19
2023-04-06T05:02:08.082Z,100287.63
2023-04-06T05:04:51.894Z,100287.25
2023-04-06T05:07:27.277Z,100266.06
2023-04-06T05:10:00.791Z,100266.06
2023-04-06T05:12:37.049Z,100268.66
2023-04-06T05:15:13.417Z,100269.06
2023-04-06T05:17:45.701Z,100280.66
2023-04-06T05:20:21.573Z,100278.06
2023-04-06T05:22:55.159Z,100279.78
2023-04-06T05:25:26.769Z,100283.28
2023-04-06T05:28:01.383Z,100285.50
2023-04-06T05:30:35.865Z,100277.88
2023-04-06T05:33:06.942Z,100294.03
2023-04-06T05:35:51.251Z,100300.00
2023-04-06T05:38:22.613Z,100298.66
2023-04-06T05:40:56.302Z,100297.28
2023-04-06T05:43:31.085Z,100304.22
2023-04-06T05:46:03.902Z,100305.06
2023-04-06T05:48:34.832Z,100299.94
2023-04-06T05:51:08.727Z,100295.66
2023-04-06T05:53:51.997Z,100301.25
2023-04-06T05:56:23.408Z,100303.34
2023-04-06T05:58:54.368Z,100298.84
2023-04-06T06:01:31.763Z,100290.91
2023-04-06T06:04:04.984Z,100280.94
2023-04-06T06:06:39.917Z,100279.81
2023-04-06T06:09:18.902Z,100283.97
2023-04-06T06:12:05.216Z,100278.53
2023-04-06T06:14:36.818Z,100278.50
2023-04-06T06:17:07.653Z,100280.13
2023-04-06T06:19:39.721Z,100286.25
2023-04-06T06:22:13.518Z,100296.06
2023-04-06T06:24:48.426Z,100292.56
2023-04-06T06:27:22.255Z,100300.44
2023-04-06T06:29:53.503Z,100310.41
2023-04-06T06:32:24.766Z,100311.00
2023-04-06T06:34:57.575Z,100308.84
2023-04-06T06:37:30.701Z,100301.50
2023-04-06T06:40:04.136Z,100294.75
2023-04-06T06:42:37.282Z,100301.91
2023-04-06T06:45:18.194Z,100305.59
2023-04-06T06:47:52.200Z,100314.88
2023-04-06T06:50:25.059Z,100299.94
2023-04-06T06:52:57.247Z,100296.75
2023-04-06T06:55:29.293Z,100302.69
2023-04-06T06:58:00.484Z,100303.50
2023-04-06T07:00:31.783Z,100309.72
2023-04-06T07:03:03.274Z,100303.25
2023-04-06T07:05:34.951Z,100299.53
2023-04-06T07:08:06.645Z,100306.06
2023-04-06T07:10:37.769Z,100313.88
2023-04-06T07:13:09.466Z,100309.34
2023-04-06T07:15:40.958Z,100312.56
2023-04-06T07:18:12.529Z,100322.88
2023-04-06T07:20:44.807Z,100321.81
2023-04-06T07:23:16.441Z,100322.16
2023-04-06T07:25:48.032Z,100317.00
2023-04-06T07:28:18.925Z,100307.03
2023-04-06T07:30:50.974Z,100315.97
2023-04-06T07:33:22.446Z,100308.88
2023-04-06T07:35:54.960Z,100318.63
2023-04-06T07:38:26.498Z,100321.06
2023-04-06T07:40:58.322Z,100314.84
2023-04-06T07:43:29.709Z,100323.56
2023-04-06T07:46:02.893Z,100326.28
2023-04-06T07:48:34.063Z,100326.00
2023-04-06T07:51:09.183Z,100340.38
2023-04-06T07:53:43.798Z,100344.19
2023-04-06T07:56:15.115Z,100332.84
2023-04-06T07:58:46.683Z,100340.41
2023-04-06T08:01:17.696Z,100337.72
2023-04-06T08:03:49.362Z,100328.81
2023-04-06T08:06:20.681Z,100331.78
2023-04-06T08:08:52.090Z,100330.63
2023-04-06T08:11:23.826Z,100325.28
2023-04-06T08:13:54.592Z,100320.38
2023-04-06T08:16:26.698Z,100317.66
2023-04-06T08:18:58.246Z,100328.00
2023-04-06T08:21:29.337Z,100330.69
2023-04-06T08:24:00.606Z,100331.25
2023-04-06T08:26:32.218Z,100335.03
2023-04-06T08:29:03.675Z,100325.03
2023-04-06T08:31:34.609Z,100330.13
2023-04-06T08:34:09.551Z,100320.69
2023-04-06T08:36:42.220Z,100332.84
2023-04-06T08:39:13.336Z,100333.69
2023-04-06T08:41:48.042Z,100322.56
2023-04-06T08:44:20.382Z,100331.78
2023-04-06T08:46:53.430Z,100324.19
2023-04-06T08:49:25.348Z,100332.31
2023-04-06T08:51:56.615Z,100329.59
2023-04-06T08:54:28.002Z,100329.06
2023-04-06T08:56:59.346Z,100332.03
2023-04-06T08:59:30.893Z,100336.06
2023-04-06T09:02:05.515Z,100336.13
2023-04-06T09:04:38.053Z,100345.34
2023-04-06T09:07:10.044Z,100336.66
2023-04-06T09:09:45.898Z,100326.91
2023-04-06T09:12:46.677Z,100335.06
2023-04-06T09:15:25.069Z,100325.03
2023-04-06T09:17:57.056Z,100334.25
2023-04-06T09:20:30.607Z,100335.34
2023-04-06T09:23:02.577Z,100330.72
2023-04-06T09:25:35.067Z,100331.56
2023-04-06T09:28:09.609Z,100330.47
2023-04-06T09:30:54.515Z,100330.22
2023-04-06T09:33:27.395Z,100330.19
2023-04-06T09:35:58.714Z,100320.44
2023-04-06T09:38:30.248Z,100317.41
2023-04-06T09:41:01.838Z,100313.09
2023-04-06T09:43:33.677Z,100310.13
2023-04-06T09:46:05.829Z,100313.34
2023-04-06T09:48:38.001Z,100309.34
2023-04-06T09:51:10.296Z,100311.50
2023-04-06T09:53:42.721Z,100317.50
2023-04-06T09:56:21.052Z,100309.06
2023-04-06T09:58:53.457Z,100314.75
2023-04-06T10:01:26.469Z,100318.56
2023-04-06T10:04:12.929Z,100318.59
2023-04-06T10:06:44.723Z,100312.66
2023-04-06T10:09:16.947Z,100323.75
2023-04-06T10:11:48.371Z,100317.50
2023-04-06T10:14:19.935Z,100319.13
2023-04-06T10:16:53.309Z,100321.03
2023-04-06T10:19:29.335Z,100320.47
2023-04-06T10:22:02.226Z,100317.22
2023-04-06T10:24:34.147Z,100311.81
2023-04-06T10:27:06.775Z,100320.47
2023-04-06T10:29:49.369Z,100306.34
2023-04-06T10:32:20.564Z,100310.19
2023-04-06T10:34:51.823Z,100310.72
2023-04-06T10:37:23.795Z,100309.88
2023-04-06T10:40:00.812Z,100285.56
2023-04-06T10:42:43.230Z,100303.13
2023-04-06T10:45:28.609Z,100292.59
2023-04-06T10:48:00.350Z,100292.03
2023-04-06T10:50:33.369Z,100283.38
2023-04-06T10:53:05.814Z,100264.97
2023-04-06T10:55:38.221Z,100266.88
2023-04-06T10:58:12.632Z,100255.78
2023-04-06T11:00:51.698Z,100248.47
2023-04-06T11:03:23.362Z,100256.59
2023-04-06T11:05:55.220Z,100256.59
2023-04-06T11:08:33.464Z,100254.94
2023-04-06T11:11:12.548Z,100269.03
2023-04-06T11:13:58.301Z,100251.44
2023-04-06T11:16:33.869Z,100263.63
2023-04-06T11:19:08.326Z,100253.31
2023-04-06T11:21:46.055Z,100261.19
2023-04-06T11:24:25.032Z,100251.44
2023-04-06T11:27:03.541Z,100250.09
2023-04-06T11:29:37.974Z,100248.47
2023-04-06T11:32:09.927Z,100239.53
2023-04-06T11:34:43.283Z,100227.31
2023-04-06T11:37:15.589Z,100224.09
2023-04-06T11:39:54.696Z,100214.63
2023-04-06T11:42:33.251Z,100222.75
2023-04-06T11:45:04.735Z,100217.84
2023-04-06T11:47:41.734Z,100215.72
2023-04-06T11:50:16.390Z,100216.50
2023-04-06T11:52:47.555Z,100223.59
2023-04-06T11:55:21.004Z,100218.16
2023-04-06T11:57:52.800Z,100219.78
2023-04-06T12:00:25.578Z,100211.16
2023-04-06T12:02:56.874Z,100219.22
2023-04-06T12:05:28.311Z,100216.25
2023-04-06T12:08:02.611Z,100217.88
2023-04-06T12:10:35.104Z,100215.97
2023-04-06T12:13:06.926Z,100208.38
2023-04-06T12:15:38.736Z,100210.56
2023-04-06T12:18:10.400Z,100210.03
2023-04-06T12:20:41.618Z,100203.81
2023-04-06T12:23:13.304Z,100208.97
2023-04-06T12:25:44.970Z,100205.66
2023-04-06T12:28:17.027Z,100198.38
2023-04-06T12:30:48.470Z,100202.19
2023-04-06T12:33:20.061Z,100200.31
2023-04-06T12:35:51.541Z,100206.78
2023-04-06T12:38:23.837Z,100207.59
2023-04-06T12:40:55.073Z,100206.78
2023-04-06T12:43:27.206Z,100202.47
2023-04-06T12:45:58.428Z,100200.31
2023-04-06T12:48:30.007Z,100195.69
2023-04-06T12:51:06.972Z,100193.50
2023-04-06T12:53:38.616Z,100185.94
2023-04-06T12:56:19.326Z,100173.19
2023-04-06T12:58:50.945Z,100174.78
2023-04-06T13:01:21.881Z,100160.19
2023-04-06T13:03:53.921Z,100154.47
2023-04-06T13:06:29.636Z,100166.13
2023-04-06T13:09:01.116Z,100158.53
2023-04-06T13:11:33.919Z,100151.75
2023-04-06T13:14:12.153Z,100148.53
2023-04-06T13:16:43.760Z,100137.13
2023-04-06T13:19:15.343Z,100137.69
2023-04-06T13:21:46.820Z,100134.41
2023-04-06T13:24:18.426Z,100137.72
2023-04-06T13:26:49.353Z,100135.53
2023-04-06T13:29:20.935Z,100127.41
2023-04-06T13:31:52.500Z,100127.69
2023-04-06T13:34:23.947Z,100134.72
2023-04-06T13:36:55.696Z,100130.69
2023-04-06T13:39:26.932Z,100133.13
2023-04-06T13:42:02.143Z,100139.88
2023-04-06T13:44:35.275Z,100135.84
2023-04-06T13:47:06.831Z,100131.22
2023-04-06T13:49:38.364Z,100132.28
2023-04-06T13:52:09.275Z,100126.06
2023-04-06T13:54:40.574Z,100121.47
2023-04-06T13:57:12.030Z,100122.59
2023-04-06T14:02:15.317Z,100121.75
2023-04-06T14:04:47.068Z,100118.78
2023-04-06T14:07:18.319Z,100115.81
2023-04-06T14:09:49.663Z,100106.31
2023-04-06T14:12:20.869Z,100099.03
2023-04-06T14:14:52.696Z,100088.47
2023-04-06T14:17:23.444Z,100081.94
2023-04-06T14:19:55.352Z,100077.88
2023-04-06T14:22:26.974Z,100087.13
2023-04-06T14:24:58.338Z,100083.59
2023-04-06T14:27:29.713Z,100075.78
2023-04-06T14:30:00.801Z,100078.75
2023-04-06T14:32:32.251Z,100066.56
2023-04-06T14:35:04.604Z,100073.63
2023-04-06T14:37:36.267Z,100069.56
2023-04-06T14:40:08.439Z,100058.47
2023-04-06T14:42:39.255Z,100057.34
2023-04-06T14:45:10.691Z,100054.44
2023-04-06T14:47:42.339Z,100057.13
2023-04-06T14:50:13.821Z,100049.00
2023-04-06T14:52:48.662Z,100044.94
2023-04-06T14:55:19.826Z,100044.66
2023-04-06T14:57:51.419Z,100038.69
2023-04-06T15:00:22.841Z,100043.31
2023-04-06T15:02:53.851Z,100025.22
2023-04-06T15:05:25.460Z,100007.66
2023-04-06T15:07:58.165Z,100018.69
2023-04-06T15:10:34.192Z,100025.44
2023-04-06T15:13:05.853Z,100024.34
2023-04-06T15:15:38.073Z,100011.94
2023-04-06T15:18:09.546Z,100018.44
2023-04-06T15:20:40.838Z,100013.81
2023-04-06T15:23:12.348Z,99999.50
2023-04-06T15:25:43.652Z,100006.22
2023-04-06T15:28:14.814Z,99997.03
2023-04-06T15:30:47.637Z,99994.59
2023-04-06T15:33:19.757Z,99980.28
2023-04-06T15:35:51.688Z,99983.78
2023-04-06T15:38:23.339Z,99978.34
2023-04-06T15:40:54.074Z,99976.75
2023-04-06T15:43:25.213Z,99979.97
2023-04-06T15:45:56.566Z,99977.78
2023-04-06T15:48:27.984Z,99984.03
2023-04-06T15:51:00.588Z,99975.69
2023-04-06T15:53:32.020Z,99972.72
2023-04-06T15:56:04.687Z,99969.50
2023-04-06T15:58:36.431Z,99970.84
2023-04-06T16:01:15.737Z,99971.38
2023-04-06T16:03:48.105Z,99967.34
2023-04-06T16:06:19.740Z,99967.59
2023-04-06T16:08:51.006Z,99967.59
2023-04-06T16:11:22.766Z,99969.53
2023-04-06T16:13:55.374Z,99971.41
2023-04-06T16:16:27.583Z,99971.97
2023-04-06T16:18:58.900Z,99983.31
2023-04-06T16:21:30.252Z,99983.31
2023-04-06T16:24:01.551Z,99987.91
2023-04-06T16:26:33.455Z,99990.06
2023-04-06T16:29:03.865Z,99990.34
2023-04-06T16:31:35.644Z,99990.06
2023-04-06T16:34:07.031Z,100003.63
2023-04-06T16:36:39.012Z,100003.00
2023-04-06T16:39:10.907Z,100015.44
2023-04-06T16:41:41.532Z,100018.69
2023-04-06T16:44:13.800Z,100017.34
2023-04-06T16:46:45.668Z,100018.97
2023-04-06T16:49:18.911Z,100022.53
2023-04-06T16:51:51.239Z,100031.19
2023-04-06T16:54:22.595Z,100033.38
2023-04-06T16:56:53.935Z,100032.25
2023-04-06T16:59:25.505Z,100040.63
2023-04-06T17:01:56.727Z,100032.50
2023-04-06T17:04:28.176Z,100028.72
2023-04-06T17:06:59.320Z,100027.94
2023-04-06T17:09:30.748Z,100033.59
2023-04-06T17:12:03.496Z,100036.31
2023-04-06T17:14:34.470Z,100042.81
2023-04-06T17:17:05.537Z,100048.75
2023-04-06T17:19:38.208Z,100048.50
2023-04-06T17:22:09.834Z,100049.59
2023-04-06T17:24:41.069Z,100058.25
2023-04-06T17:27:13.007Z,100065.59
2023-04-06T17:29:43.611Z,100060.97
2023-04-06T17:32:15.308Z,100068.28
2023-04-06T17:34:46.356Z,100075.88
2023-04-06T17:37:17.984Z,100081.56
2023-04-06T17:39:48.602Z,100086.19
2023-04-06T17:42:20.217Z,100081.88
2023-04-06T17:44:54.570Z,100078.63
2023-04-06T17:47:27.271Z,100085.66
2023-04-06T17:49:58.620Z,100098.91
2023-04-06T17:52:30.677Z,100097.59
2023-04-06T17:55:02.002Z,100096.50
2023-04-06T17:57:33.510Z,100106.00
2023-04-06T18:00:05.325Z,100099.19
2023-04-06T18:02:36.315Z,100104.09
2023-04-06T18:05:07.634Z,100105.69
2023-04-06T18:07:38.857Z,100115.44
2023-04-06T18:10:10.731Z,100116.28
2023-04-06T18:12:42.934Z,100117.63
2023-04-06T18:15:14.299Z,100126.84
2023-04-06T18:17:47.109Z,100127.91
2023-04-06T18:20:18.736Z,100137.91
2023-04-06T18:25:21.151Z,100133.88
2023-04-06T18:27:52.645Z,100137.66
2023-04-06T18:30:23.746Z,100140.09
2023-04-06T18:32:55.429Z,100143.34
2023-04-06T18:35:26.336Z,100143.34
2023-04-06T18:37:57.499Z,100156.88
2023-04-06T18:40:36.628Z,100154.41
2023-04-06T18:43:09.998Z,100145.25
2023-04-06T18:45:41.356Z,100153.63
2023-04-06T18:48:13.061Z,100158.75
2023-04-06T18:50:47.397Z,100157.69
2023-04-06T18:53:19.046Z,100164.41
2023-04-06T18:55:50.256Z,100168.19
2023-04-06T18:58:22.103Z,100166.31
2023-04-06T19:00:54.438Z,100171.16
2023-04-06T19:03:25.889Z,100167.94
2023-04-06T19:05:57.429Z,100178.47
2023-04-06T19:08:28.639Z,100180.38
2023-04-06T19:10:59.752Z,100187.41
2023-04-06T19:13:30.805Z,100195.25
2023-04-06T19:16:02.622Z,100186.34
2023-04-06T19:18:33.902Z,100196.34
2023-04-06T19:21:06.776Z,100200.66
2023-04-06T19:23:38.378Z,100210.38
2023-04-06T19:26:13.296Z,100195.78
2023-04-06T19:28:45.265Z,100204.66
2023-04-06T19:31:16.605Z,100214.69
2023-04-06T19:33:49.086Z,100215.47
2023-04-06T19:36:20.241Z,100221.72
2023-04-06T19:38:51.834Z,100218.75
2023-04-06T19:41:23.166Z,100221.16
2023-04-06T19:43:54.818Z,100223.34
2023-04-06T19:46:26.088Z,100220.38
2023-04-06T19:48:57.626Z,100216.56
2023-04-06T19:51:34.060Z,100216.31
2023-04-06T19:54:06.367Z,100230.38
2023-04-06T19:56:38.428Z,100229.28
2023-04-06T19:59:12.803Z,100229.53
2023-04-06T20:01:44.133Z,100234.13
2023-04-06T20:04:15.975Z,100233.84
2023-04-06T20:06:47.238Z,100241.16
2023-04-06T20:09:18.882Z,100239.53
2023-04-06T20:11:49.650Z,100236.19
2023-04-06T20:14:21.048Z,100238.06
2023-04-06T20:16:52.243Z,100238.34
2023-04-06T20:19:23.902Z,100228.06
2023-04-06T20:21:55.223Z,100235.50
2023-04-06T20:24:26.678Z,100241.09
2023-04-06T20:26:58.222Z,100241.06
2023-04-06T20:29:29.498Z,100230.09
2023-04-06T20:32:01.526Z,100233.72
2023-04-06T20:34:33.828Z,100233.88
2023-04-06T20:37:05.081Z,100233.13
2023-04-06T20:39:36.051Z,100224.75
2023-04-06T20:42:09.014Z,100224.75
2023-04-06T20:44:40.344Z,100230.03
2023-04-06T20:47:11.445Z,100224.72
2023-04-06T20:49:42.698Z,100230.13
2023-04-06T20:52:14.571Z,100234.91
2023-04-06T20:54:44.917Z,100237.09
2023-04-06T20:57:15.837Z,100240.41
2023-04-06T20:59:49.290Z,100239.94
2023-04-06T21:02:20.821Z,100237.47
2023-04-06T21:04:52.322Z,100243.19
2023-04-06T21:07:23.396Z,100244.34
2023-04-06T21:09:54.710Z,100240.59
2023-04-06T21:12:25.523Z,100242.31
2023-04-06T21:14:56.645Z,100223.06
2023-04-06T21:17:28.287Z,100231.03
2023-04-06T21:19:59.457Z,100245.53
2023-04-06T21:22:30.774Z,100251.59
2023-04-06T21:25:02.054Z,100252.31
2023-04-06T21:27:32.974Z,100254.09
2023-04-06T21:30:04.285Z,100256.97
2023-04-06T21:32:35.168Z,100262.50
2023-04-06T21:35:07.383Z,100253.47
2023-04-06T21:37:38.935Z,100249.50
2023-04-06T21:40:11.008Z,100255.28
2023-04-06T21:42:42.116Z,100246.16
2023-04-06T21:45:13.766Z,100249.13
2023-04-06T21:47:44.722Z,100244.56
2023-04-06T21:50:16.162Z,100245.16
2023-04-06T21:52:47.591Z,100247.59
2023-04-06T21:55:18.934Z,100252.97
2023-04-06T21:57:50.210Z,100247.72
2023-04-06T22:00:22.033Z,100241.28
2023-04-06T22:02:53.032Z,100233.53
2023-04-06T22:05:24.456Z,100232.75
2023-04-06T22:07:55.591Z,100221.78
2023-04-06T22:10:27.364Z,100218.25
2023-04-06T22:12:58.815Z,100203.59
2023-04-06T22:15:29.351Z,100203.63
2023-04-06T22:18:00.605Z,100200.44
2023-04-06T22:20:32.430Z,100210.88
2023-04-06T22:23:02.640Z,100207.47
2023-04-06T22:25:34.261Z,100208.00
2023-04-06T22:28:07.773Z,100199.69
2023-04-06T22:30:39.046Z,100206.00
2023-04-06T22:33:10.396Z,100198.25
2023-04-06T22:35:42.104Z,100187.59
2023-04-06T22:38:13.465Z,100194.19
2023-04-06T22:40:44.197Z,100194.06
2023-04-06T22:43:15.555Z,100192.38
2023-04-06T22:45:46.201Z,100180.94
2023-04-06T22:48:17.801Z,100191.78
2023-04-06T22:50:49.158Z,100196.41
2023-04-06T22:53:20.057Z,100186.25
2023-04-06T22:55:51.074Z,100189.16
2023-04-06T22:58:22.570Z,100187.25
2023-04-06T23:00:53.038Z,100187.50
2023-04-06T23:03:24.273Z,100198.84
2023-04-06T23:05:56.041Z,100204.28
2023-04-06T23:08:26.565Z,100211.19
2023-04-06T23:10:58.011Z,100229.06
2023-04-06T23:13:29.280Z,100239.91
2023-04-06T23:16:00.471Z,100263.75
2023-04-06T23:18:31.505Z,100267.63
2023-04-06T23:21:02.882Z,100262.25
2023-04-06T23:23:34.424Z,100257.09
2023-04-06T23:26:06.662Z,100226.50
2023-04-06T23:28:37.889Z,100215.84
2023-04-06T23:31:09.185Z,100216.13
2023-04-06T23:33:40.403Z,100223.16
2023-04-06T23:36:12.632Z,100230.38
2023-04-06T23:38:43.680Z,100217.38
2023-04-06T23:41:18.234Z,100202.66
2023-04-06T23:43:49.400Z,100204.00
2023-04-06T23:46:20.582Z,100212.22
2023-04-06T23:48:51.982Z,100196.56
2023-04-06T23:51:22.759Z,100193.84
2023-04-06T23:53:53.969Z,100187.59
2023-04-06T23:56:25.198Z,100197.13
2023-04-06T23:58:57.056Z,100197.81
